Airport ID:KMHV
Update Time (UTC):19/10/2019 18:57
Wind Speed (Knots):4
Wind Direction (Magnetic):20
Temperature (°C):21
Dew Point (°C):-1
Humidity (%):23
Altimeter (inHg):30.01
Density Altitude (Feet):4200
Visibility (Miles):10+
Clouds (Hundreds of feet):CLR
Present Weather:
METAR:METAR KMHV 191840Z AUTO 00000KT 10SM CLR 21/M01 A3001 RMK A01

The data displayed is for advisory purposes only and is not to be used for flight planning or operations.

This page is not automatically refreshed. Reload the page to see current data.